sensor_id;sensor_type;location;lat;lon;timestamp;pressure;altitude;pressure_sealevel;temperature;humidity
9717;BME280;4897;43.570;27.832;2022-10-31T00:02:03;99315.00;;;15.01;100.00
9717;BME280;4897;43.570;27.832;2022-10-31T00:04:30;99306.22;;;14.99;100.00
9717;BME280;4897;43.570;27.832;2022-10-31T00:10:18;99322.16;;;14.92;100.00
9717;BME280;4897;43.570;27.832;2022-10-31T00:12:46;99316.94;;;14.91;100.00
9717;BME280;4897;43.570;27.832;2022-10-31T00:15:13;99322.38;;;14.99;100.00
9717;BME280;4897;43.570;27.832;2022-10-31T00:17:40;99322.84;;;14.94;100.00
9717;BME280;4897;43.570;27.832;2022-10-31T00:20:09;99314.53;;;14.88;100.00
9717;BME280;4897;43.570;27.832;2022-10-31T00:22:37;99322.31;;;14.91;100.00
9717;BME280;4897;43.570;27.832;2022-10-31T00:25:04;99324.16;;;14.90;100.00
9717;BME280;4897;43.570;27.832;2022-10-31T00:27:31;99312.28;;;14.83;100.00
9717;BME280;4897;43.570;27.832;2022-10-31T00:30:00;99313.66;;;14.87;100.00
9717;BME280;4897;43.570;27.832;2022-10-31T00:32:28;99290.06;;;14.81;100.00
9717;BME280;4897;43.570;27.832;2022-10-31T00:34:55;99307.69;;;14.93;100.00
9717;BME280;4897;43.570;27.832;2022-10-31T00:37:22;99312.97;;;14.85;100.00
9717;BME280;4897;43.570;27.832;2022-10-31T00:39:49;99302.13;;;14.77;100.00
9717;BME280;4897;43.570;27.832;2022-10-31T00:42:18;99319.91;;;14.88;100.00
9717;BME280;4897;43.570;27.832;2022-10-31T00:44:45;99320.78;;;14.88;100.00
9717;BME280;4897;43.570;27.832;2022-10-31T00:47:13;99318.78;;;14.90;100.00
9717;BME280;4897;43.570;27.832;2022-10-31T00:49:40;99315.38;;;14.88;100.00
9717;BME280;4897;43.570;27.832;2022-10-31T00:52:07;99317.78;;;14.91;100.00
9717;BME280;4897;43.570;27.832;2022-10-31T00:54:34;99318.53;;;15.01;100.00
9717;BME280;4897;43.570;27.832;2022-10-31T00:57:01;99308.59;;;15.02;100.00
9717;BME280;4897;43.570;27.832;2022-10-31T00:59:28;99318.09;;;15.06;100.00
9717;BME280;4897;43.570;27.832;2022-10-31T01:01:54;99320.31;;;14.93;100.00
9717;BME280;4897;43.570;27.832;2022-10-31T01:04:23;99320.78;;;14.88;100.00
9717;BME280;4897;43.570;27.832;2022-10-31T01:06:50;99323.53;;;14.96;100.00
9717;BME280;4897;43.570;27.832;2022-10-31T01:09:16;99318.47;;;14.93;100.00
9717;BME280;4897;43.570;27.832;2022-10-31T01:11:43;99296.47;;;14.80;100.00
9717;BME280;4897;43.570;27.832;2022-10-31T01:14:10;99325.63;;;14.85;100.00
9717;BME280;4897;43.570;27.832;2022-10-31T01:16:37;99319.06;;;14.87;100.00
9717;BME280;4897;43.570;27.832;2022-10-31T01:19:04;99308.09;;;14.81;100.00
9717;BME280;4897;43.570;27.832;2022-10-31T01:21:32;99315.66;;;14.85;100.00
9717;BME280;4897;43.570;27.832;2022-10-31T01:23:59;99323.63;;;14.87;100.00
9717;BME280;4897;43.570;27.832;2022-10-31T01:26:28;99309.53;;;14.75;100.00
9717;BME280;4897;43.570;27.832;2022-10-31T01:28:58;99318.63;;;14.74;100.00
9717;BME280;4897;43.570;27.832;2022-10-31T01:31:26;99320.53;;;14.64;100.00
9717;BME280;4897;43.570;27.832;2022-10-31T01:33:53;99311.06;;;14.60;100.00
9717;BME280;4897;43.570;27.832;2022-10-31T01:36:22;99246.69;;;14.22;100.00
9717;BME280;4897;43.570;27.832;2022-10-31T01:38:52;99287.28;;;14.56;100.00
9717;BME280;4897;43.570;27.832;2022-10-31T01:41:21;99300.75;;;14.73;100.00
9717;BME280;4897;43.570;27.832;2022-10-31T01:43:51;99286.13;;;14.58;100.00
9717;BME280;4897;43.570;27.832;2022-10-31T01:46:22;99287.44;;;14.54;100.00
9717;BME280;4897;43.570;27.832;2022-10-31T01:48:50;99291.28;;;14.52;100.00
9717;BME280;4897;43.570;27.832;2022-10-31T01:51:21;99297.75;;;14.59;100.00
9717;BME280;4897;43.570;27.832;2022-10-31T01:53:54;99298.50;;;14.51;100.00
9717;BME280;4897;43.570;27.832;2022-10-31T01:56:22;99294.09;;;14.50;100.00
9717;BME280;4897;43.570;27.832;2022-10-31T01:58:49;99273.50;;;14.41;100.00
9717;BME280;4897;43.570;27.832;2022-10-31T02:01:17;99301.19;;;14.51;100.00
9717;BME280;4897;43.570;27.832;2022-10-31T02:03:45;99299.13;;;14.45;100.00
9717;BME280;4897;43.570;27.832;2022-10-31T02:06:20;99300.69;;;14.38;100.00
9717;BME280;4897;43.570;27.832;2022-10-31T02:08:48;99302.72;;;14.26;100.00
9717;BME280;4897;43.570;27.832;2022-10-31T02:11:17;99306.47;;;14.16;100.00
9717;BME280;4897;43.570;27.832;2022-10-31T02:13:43;99317.69;;;14.02;100.00
9717;BME280;4897;43.570;27.832;2022-10-31T02:16:10;99303.44;;;13.92;100.00
9717;BME280;4897;43.570;27.832;2022-10-31T02:18:37;99311.72;;;13.81;100.00
9717;BME280;4897;43.570;27.832;2022-10-31T02:21:11;99311.72;;;13.71;100.00
9717;BME280;4897;43.570;27.832;2022-10-31T02:24:06;99308.66;;;13.56;100.00
9717;BME280;4897;43.570;27.832;2022-10-31T02:26:54;99320.53;;;13.54;100.00
9717;BME280;4897;43.570;27.832;2022-10-31T02:29:51;99324.81;;;13.37;100.00
9717;BME280;4897;43.570;27.832;2022-10-31T02:32:25;99324.28;;;13.24;100.00
9717;BME280;4897;43.570;27.832;2022-10-31T02:34:58;99332.91;;;13.18;100.00
9717;BME280;4897;43.570;27.832;2022-10-31T02:37:33;99334.72;;;13.08;100.00
9717;BME280;4897;43.570;27.832;2022-10-31T02:40:08;99265.75;;;12.61;100.00
9717;BME280;4897;43.570;27.832;2022-10-31T02:42:42;99336.56;;;13.17;100.00
9717;BME280;4897;43.570;27.832;2022-10-31T02:45:21;99334.16;;;13.24;100.00
9717;BME280;4897;43.570;27.832;2022-10-31T02:47:54;99332.03;;;13.08;100.00
9717;BME280;4897;43.570;27.832;2022-10-31T02:50:23;99325.13;;;13.06;100.00
9717;BME280;4897;43.570;27.832;2022-10-31T02:52:53;99345.75;;;13.34;100.00
9717;BME280;4897;43.570;27.832;2022-10-31T02:55:47;99351.25;;;13.51;100.00
9717;BME280;4897;43.570;27.832;2022-10-31T02:58:18;99342.03;;;13.63;100.00
9717;BME280;4897;43.570;27.832;2022-10-31T03:00:54;99340.31;;;13.72;100.00
9717;BME280;4897;43.570;27.832;2022-10-31T03:03:31;99344.25;;;13.78;100.00
9717;BME280;4897;43.570;27.832;2022-10-31T03:06:03;99333.91;;;13.83;100.00
9717;BME280;4897;43.570;27.832;2022-10-31T03:08:37;99344.47;;;13.94;100.00
9717;BME280;4897;43.570;27.832;2022-10-31T03:11:08;99344.19;;;13.97;100.00
9717;BME280;4897;43.570;27.832;2022-10-31T03:13:40;99344.47;;;13.94;100.00
9717;BME280;4897;43.570;27.832;2022-10-31T03:16:10;99358.31;;;13.99;100.00
9717;BME280;4897;43.570;27.832;2022-10-31T03:18:43;99353.47;;;14.12;100.00
9717;BME280;4897;43.570;27.832;2022-10-31T03:21:18;99347.78;;;14.15;100.00
9717;BME280;4897;43.570;27.832;2022-10-31T03:23:49;99362.63;;;14.19;100.00
9717;BME280;4897;43.570;27.832;2022-10-31T03:26:17;99353.59;;;14.20;100.00
9717;BME280;4897;43.570;27.832;2022-10-31T03:28:50;99336.81;;;13.99;100.00
9717;BME280;4897;43.570;27.832;2022-10-31T03:31:19;99358.53;;;14.15;100.00
9717;BME280;4897;43.570;27.832;2022-10-31T03:33:52;99361.66;;;14.20;100.00
9717;BME280;4897;43.570;27.832;2022-10-31T03:36:20;99361.94;;;14.17;100.00
9717;BME280;4897;43.570;27.832;2022-10-31T03:38:47;99359.50;;;14.23;100.00
9717;BME280;4897;43.570;27.832;2022-10-31T03:41:18;99342.31;;;14.07;100.00
9717;BME280;4897;43.570;27.832;2022-10-31T03:43:51;99369.13;;;14.26;100.00
9717;BME280;4897;43.570;27.832;2022-10-31T03:46:20;99349.88;;;14.21;100.00
9717;BME280;4897;43.570;27.832;2022-10-31T03:48:48;99364.13;;;14.40;100.00
9717;BME280;4897;43.570;27.832;2022-10-31T03:51:20;99370.38;;;14.41;100.00
9717;BME280;4897;43.570;27.832;2022-10-31T03:53:54;99368.72;;;14.30;100.00
9717;BME280;4897;43.570;27.832;2022-10-31T03:56:26;99378.81;;;14.46;100.00
9717;BME280;4897;43.570;27.832;2022-10-31T03:58:59;99393.97;;;14.47;100.00
9717;BME280;4897;43.570;27.832;2022-10-31T04:01:29;99367.34;;;14.07;100.00
9717;BME280;4897;43.570;27.832;2022-10-31T04:03:58;99359.63;;;13.95;100.00
9717;BME280;4897;43.570;27.832;2022-10-31T04:06:27;99412.63;;;14.12;100.00
9717;BME280;4897;43.570;27.832;2022-10-31T04:08:57;99416.06;;;13.95;100.00
9717;BME280;4897;43.570;27.832;2022-10-31T04:11:28;99411.56;;;13.86;100.00
9717;BME280;4897;43.570;27.832;2022-10-31T04:13:57;99408.00;;;13.85;100.00
9717;BME280;4897;43.570;27.832;2022-10-31T04:16:26;99416.66;;;13.89;100.00
9717;BME280;4897;43.570;27.832;2022-10-31T04:18:53;99422.06;;;13.70;100.00
9717;BME280;4897;43.570;27.832;2022-10-31T04:21:28;99403.53;;;13.67;100.00
9717;BME280;4897;43.570;27.832;2022-10-31T04:23:55;99431.97;;;13.79;100.00
9717;BME280;4897;43.570;27.832;2022-10-31T04:26:22;99433.06;;;13.86;100.00
9717;BME280;4897;43.570;27.832;2022-10-31T04:28:49;99407.34;;;13.74;100.00
9717;BME280;4897;43.570;27.832;2022-10-31T04:31:16;99431.78;;;13.99;100.00
9717;BME280;4897;43.570;27.832;2022-10-31T04:33:43;99430.06;;;14.08;100.00
9717;BME280;4897;43.570;27.832;2022-10-31T04:36:10;99403.91;;;13.91;100.00
9717;BME280;4897;43.570;27.832;2022-10-31T04:38:40;99429.59;;;14.12;100.00
9717;BME280;4897;43.570;27.832;2022-10-31T04:41:07;99410.22;;;14.18;100.00
9717;BME280;4897;43.570;27.832;2022-10-31T04:43:34;99416.31;;;14.11;100.00
9717;BME280;4897;43.570;27.832;2022-10-31T04:46:01;99429.78;;;14.01;100.00
9717;BME280;4897;43.570;27.832;2022-10-31T04:48:27;99425.97;;;14.04;100.00
9717;BME280;4897;43.570;27.832;2022-10-31T04:50:58;99403.41;;;14.14;100.00
9717;BME280;4897;43.570;27.832;2022-10-31T04:53:25;99418.81;;;14.22;100.00
9717;BME280;4897;43.570;27.832;2022-10-31T04:55:54;99422.22;;;14.24;100.00
9717;BME280;4897;43.570;27.832;2022-10-31T04:58:20;99423.91;;;14.34;100.00
9717;BME280;4897;43.570;27.832;2022-10-31T05:00:47;99395.91;;;14.18;100.00
9717;BME280;4897;43.570;27.832;2022-10-31T05:03:17;99436.03;;;14.48;100.00
9717;BME280;4897;43.570;27.832;2022-10-31T05:05:44;99431.44;;;14.58;100.00
9717;BME280;4897;43.570;27.832;2022-10-31T05:08:11;99434.13;;;14.58;100.00
9717;BME280;4897;43.570;27.832;2022-10-31T05:10:39;99441.94;;;14.61;100.00
9717;BME280;4897;43.570;27.832;2022-10-31T05:13:08;99434.88;;;14.51;100.00
9717;BME280;4897;43.570;27.832;2022-10-31T05:15:35;99391.63;;;14.25;100.00
9717;BME280;4897;43.570;27.832;2022-10-31T05:18:02;99459.97;;;14.78;100.00
9717;BME280;4897;43.570;27.832;2022-10-31T05:20:29;99460.78;;;14.88;100.00
9717;BME280;4897;43.570;27.832;2022-10-31T05:22:57;99387.84;;;14.55;100.00
9717;BME280;4897;43.570;27.832;2022-10-31T05:25:26;99443.63;;;14.89;100.00
9717;BME280;4897;43.570;27.832;2022-10-31T05:27:54;99434.72;;;14.89;100.00
9717;BME280;4897;43.570;27.832;2022-10-31T05:30:25;99457.03;;;15.16;100.00
9717;BME280;4897;43.570;27.832;2022-10-31T05:32:52;99459.22;;;15.13;100.00
9717;BME280;4897;43.570;27.832;2022-10-31T05:35:20;99463.75;;;15.12;100.00
9717;BME280;4897;43.570;27.832;2022-10-31T05:37:47;99466.91;;;15.08;100.00
9717;BME280;4897;43.570;27.832;2022-10-31T05:40:16;99463.56;;;14.96;100.00
9717;BME280;4897;43.570;27.832;2022-10-31T05:42:44;99487.09;;;14.94;100.00
9717;BME280;4897;43.570;27.832;2022-10-31T05:45:13;99477.22;;;14.85;100.00
9717;BME280;4897;43.570;27.832;2022-10-31T05:47:41;99479.00;;;14.67;100.00
9717;BME280;4897;43.570;27.832;2022-10-31T05:50:09;99482.72;;;14.66;100.00
9717;BME280;4897;43.570;27.832;2022-10-31T05:52:36;99470.84;;;14.59;100.00
9717;BME280;4897;43.570;27.832;2022-10-31T05:55:03;99486.81;;;14.70;100.00
9717;BME280;4897;43.570;27.832;2022-10-31T05:57:32;99493.69;;;14.82;100.00
9717;BME280;4897;43.570;27.832;2022-10-31T05:59:59;99487.84;;;14.87;100.00
9717;BME280;4897;43.570;27.832;2022-10-31T06:02:26;99497.78;;;15.13;100.00
9717;BME280;4897;43.570;27.832;2022-10-31T06:04:58;99469.88;;;15.32;100.00
9717;BME280;4897;43.570;27.832;2022-10-31T06:07:25;99498.94;;;15.73;100.00
9717;BME280;4897;43.570;27.832;2022-10-31T06:09:52;99484.09;;;16.13;100.00
9717;BME280;4897;43.570;27.832;2022-10-31T06:12:19;99480.38;;;16.57;100.00
9717;BME280;4897;43.570;27.832;2022-10-31T06:14:46;99462.84;;;16.95;100.00
9717;BME280;4897;43.570;27.832;2022-10-31T06:17:13;99494.94;;;17.39;100.00
9717;BME280;4897;43.570;27.832;2022-10-31T06:19:40;99494.50;;;17.52;100.00
9717;BME280;4897;43.570;27.832;2022-10-31T06:22:08;99501.09;;;17.66;100.00
9717;BME280;4897;43.570;27.832;2022-10-31T06:24:36;99495.88;;;17.80;100.00
9717;BME280;4897;43.570;27.832;2022-10-31T06:27:03;99500.59;;;17.94;100.00
9717;BME280;4897;43.570;27.832;2022-10-31T06:29:31;99497.75;;;18.12;100.00
9717;BME280;4897;43.570;27.832;2022-10-31T06:31:58;99500.94;;;18.15;100.00
9717;BME280;4897;43.570;27.832;2022-10-31T06:34:26;99504.31;;;18.25;100.00
9717;BME280;4897;43.570;27.832;2022-10-31T06:36:52;99510.44;;;18.35;100.00
9717;BME280;4897;43.570;27.832;2022-10-31T06:39:23;99514.50;;;18.48;100.00
9717;BME280;4897;43.570;27.832;2022-10-31T06:41:52;99409.81;;;17.76;100.00
9717;BME280;4897;43.570;27.832;2022-10-31T06:44:19;99497.06;;;18.02;100.00
9717;BME280;4897;43.570;27.832;2022-10-31T06:46:46;99514.31;;;17.85;100.00
9717;BME280;4897;43.570;27.832;2022-10-31T06:49:13;99521.88;;;17.65;100.00
9717;BME280;4897;43.570;27.832;2022-10-31T06:51:41;99514.09;;;17.54;100.00
9717;BME280;4897;43.570;27.832;2022-10-31T06:54:07;99492.53;;;17.36;100.00
9717;BME280;4897;43.570;27.832;2022-10-31T06:56:36;99517.47;;;17.56;100.00
9717;BME280;4897;43.570;27.832;2022-10-31T06:59:03;99436.53;;;17.05;100.00
9717;BME280;4897;43.570;27.832;2022-10-31T07:01:30;99520.88;;;17.66;100.00
9717;BME280;4897;43.570;27.832;2022-10-31T07:03:57;99518.16;;;17.50;100.00
9717;BME280;4897;43.570;27.832;2022-10-31T07:06:24;99526.94;;;17.52;100.00
9717;BME280;4897;43.570;27.832;2022-10-31T07:08:51;99515.72;;;17.47;100.00
9717;BME280;4897;43.570;27.832;2022-10-31T07:11:18;99523.22;;;17.61;100.00
9717;BME280;4897;43.570;27.832;2022-10-31T07:13:46;99523.56;;;17.66;100.00
9717;BME280;4897;43.570;27.832;2022-10-31T07:16:13;99520.56;;;17.77;100.00
9717;BME280;4897;43.570;27.832;2022-10-31T07:18:40;99520.56;;;17.85;100.00
9717;BME280;4897;43.570;27.832;2022-10-31T07:21:07;99524.81;;;17.96;100.00
9717;BME280;4897;43.570;27.832;2022-10-31T07:23:34;99511.78;;;17.91;100.00
9717;BME280;4897;43.570;27.832;2022-10-31T07:26:00;99532.44;;;18.16;100.00
9717;BME280;4897;43.570;27.832;2022-10-31T07:28:27;99517.72;;;18.27;100.00
9717;BME280;4897;43.570;27.832;2022-10-31T07:30:57;99522.13;;;18.52;100.00
9717;BME280;4897;43.570;27.832;2022-10-31T07:33:24;99496.03;;;18.43;100.00
9717;BME280;4897;43.570;27.832;2022-10-31T07:35:52;99504.31;;;18.58;100.00
9717;BME280;4897;43.570;27.832;2022-10-31T07:38:19;99521.59;;;18.65;100.00
9717;BME280;4897;43.570;27.832;2022-10-31T07:40:50;99505.97;;;18.75;100.00
9717;BME280;4897;43.570;27.832;2022-10-31T07:43:20;99466.72;;;18.71;100.00
9717;BME280;4897;43.570;27.832;2022-10-31T07:45:51;99517.06;;;19.04;100.00
9717;BME280;4897;43.570;27.832;2022-10-31T07:48:20;99511.56;;;19.20;100.00
9717;BME280;4897;43.570;27.832;2022-10-31T07:50:47;99493.25;;;19.22;100.00
9717;BME280;4897;43.570;27.832;2022-10-31T07:53:14;99508.81;;;19.36;100.00
9717;BME280;4897;43.570;27.832;2022-10-31T07:55:42;99500.66;;;19.36;100.00
9717;BME280;4897;43.570;27.832;2022-10-31T07:58:10;99506.94;;;19.37;100.00
9717;BME280;4897;43.570;27.832;2022-10-31T08:00:42;99497.56;;;19.47;100.00
9717;BME280;4897;43.570;27.832;2022-10-31T08:03:10;99497.31;;;19.57;100.00
9717;BME280;4897;43.570;27.832;2022-10-31T08:05:39;99504.06;;;19.69;100.00
9717;BME280;4897;43.570;27.832;2022-10-31T08:08:06;99386.63;;;18.99;100.00
9717;BME280;4897;43.570;27.832;2022-10-31T08:10:34;99505.81;;;19.84;100.00
9717;BME280;4897;43.570;27.832;2022-10-31T08:13:05;99518.59;;;19.99;100.00
9717;BME280;4897;43.570;27.832;2022-10-31T08:15:32;99424.88;;;19.65;100.00
9717;BME280;4897;43.570;27.832;2022-10-31T08:18:02;99514.44;;;20.33;100.00
9717;BME280;4897;43.570;27.832;2022-10-31T08:20:29;99509.94;;;20.40;100.00
9717;BME280;4897;43.570;27.832;2022-10-31T08:22:59;99498.53;;;20.45;100.00
9717;BME280;4897;43.570;27.832;2022-10-31T08:25:27;99507.84;;;20.65;100.00
9717;BME280;4897;43.570;27.832;2022-10-31T08:27:54;99505.13;;;20.65;100.00
9717;BME280;4897;43.570;27.832;2022-10-31T08:30:23;99522.19;;;20.88;100.00
9717;BME280;4897;43.570;27.832;2022-10-31T08:32:58;99513.69;;;21.71;100.00
9717;BME280;4897;43.570;27.832;2022-10-31T08:35:25;99507.78;;;24.08;99.10
9717;BME280;4897;43.570;27.832;2022-10-31T08:37:53;99495.50;;;26.42;71.22
9717;BME280;4897;43.570;27.832;2022-10-31T08:40:22;99498.63;;;29.02;55.82
9717;BME280;4897;43.570;27.832;2022-10-31T08:42:56;99500.16;;;30.29;48.84
9717;BME280;4897;43.570;27.832;2022-10-31T08:45:24;99494.06;;;31.27;44.92
9717;BME280;4897;43.570;27.832;2022-10-31T08:47:50;99494.97;;;31.97;42.46
9717;BME280;4897;43.570;27.832;2022-10-31T08:50:18;99496.13;;;32.60;40.16
9717;BME280;4897;43.570;27.832;2022-10-31T08:52:47;99500.66;;;32.12;39.60
9717;BME280;4897;43.570;27.832;2022-10-31T08:55:16;99482.38;;;31.63;39.87
9717;BME280;4897;43.570;27.832;2022-10-31T08:57:45;99504.69;;;32.31;39.76
9717;BME280;4897;43.570;27.832;2022-10-31T09:00:12;99501.19;;;32.99;37.95
9717;BME280;4897;43.570;27.832;2022-10-31T09:02:42;99511.03;;;33.84;36.24
9717;BME280;4897;43.570;27.832;2022-10-31T09:05:08;99497.63;;;34.73;35.35
9717;BME280;4897;43.570;27.832;2022-10-31T09:07:35;99501.81;;;34.50;34.55
9717;BME280;4897;43.570;27.832;2022-10-31T09:10:05;99500.13;;;34.49;34.60
9717;BME280;4897;43.570;27.832;2022-10-31T09:12:32;99506.59;;;33.78;34.82
9717;BME280;4897;43.570;27.832;2022-10-31T09:15:03;99510.56;;;32.35;36.62
9717;BME280;4897;43.570;27.832;2022-10-31T09:17:31;99475.84;;;31.31;37.61
9717;BME280;4897;43.570;27.832;2022-10-31T09:19:58;99513.09;;;32.10;37.18
9717;BME280;4897;43.570;27.832;2022-10-31T09:22:25;99498.09;;;33.38;35.55
9717;BME280;4897;43.570;27.832;2022-10-31T09:24:52;99485.84;;;33.96;34.65
9717;BME280;4897;43.570;27.832;2022-10-31T09:27:19;99490.41;;;34.67;33.50
9717;BME280;4897;43.570;27.832;2022-10-31T09:29:46;99503.06;;;35.49;32.24
9717;BME280;4897;43.570;27.832;2022-10-31T09:32:14;99494.13;;;33.86;33.70
9717;BME280;4897;43.570;27.832;2022-10-31T09:34:41;99488.47;;;33.55;34.22
9717;BME280;4897;43.570;27.832;2022-10-31T09:37:08;99487.06;;;34.60;32.39
9717;BME280;4897;43.570;27.832;2022-10-31T09:39:37;99494.47;;;35.50;31.30
9717;BME280;4897;43.570;27.832;2022-10-31T09:45:07;99494.84;;;32.72;34.49
9717;BME280;4897;43.570;27.832;2022-10-31T09:47:50;99478.06;;;33.98;32.95
9717;BME280;4897;43.570;27.832;2022-10-31T09:50:22;99484.53;;;34.28;32.32
9717;BME280;4897;43.570;27.832;2022-10-31T09:52:56;99492.47;;;33.84;32.69
9717;BME280;4897;43.570;27.832;2022-10-31T09:55:31;99486.94;;;32.27;34.40
9717;BME280;4897;43.570;27.832;2022-10-31T09:58:02;99496.22;;;29.80;38.00
9717;BME280;4897;43.570;27.832;2022-10-31T10:00:29;99502.94;;;28.98;41.41
9717;BME280;4897;43.570;27.832;2022-10-31T10:03:04;99491.63;;;29.46;38.99
9717;BME280;4897;43.570;27.832;2022-10-31T10:05:43;99484.44;;;27.70;41.86
9717;BME280;4897;43.570;27.832;2022-10-31T10:08:18;99499.97;;;26.61;46.21
9717;BME280;4897;43.570;27.832;2022-10-31T10:10:49;99504.25;;;26.32;48.95
9717;BME280;4897;43.570;27.832;2022-10-31T10:13:40;99482.97;;;26.77;46.92
9717;BME280;4897;43.570;27.832;2022-10-31T10:16:16;99493.81;;;26.90;48.52
9717;BME280;4897;43.570;27.832;2022-10-31T10:19:00;99493.72;;;28.70;42.90
9717;BME280;4897;43.570;27.832;2022-10-31T10:21:38;99453.00;;;30.14;39.35
9717;BME280;4897;43.570;27.832;2022-10-31T10:24:23;99449.00;;;32.91;34.50
9717;BME280;4897;43.570;27.832;2022-10-31T10:26:59;99485.28;;;32.26;35.06
9717;BME280;4897;43.570;27.832;2022-10-31T10:29:36;99477.72;;;33.17;33.55
9717;BME280;4897;43.570;27.832;2022-10-31T10:32:10;99480.00;;;32.52;34.24
9717;BME280;4897;43.570;27.832;2022-10-31T10:34:44;99471.72;;;32.52;34.86
9717;BME280;4897;43.570;27.832;2022-10-31T10:37:20;99472.34;;;32.64;33.16
9717;BME280;4897;43.570;27.832;2022-10-31T10:40:03;99468.91;;;31.93;34.56
9717;BME280;4897;43.570;27.832;2022-10-31T10:42:34;99468.88;;;33.92;32.32
9717;BME280;4897;43.570;27.832;2022-10-31T10:45:20;99462.72;;;33.65;32.03
9717;BME280;4897;43.570;27.832;2022-10-31T10:48:16;99467.44;;;32.76;32.84
9717;BME280;4897;43.570;27.832;2022-10-31T10:50:48;99472.44;;;32.15;33.98
9717;BME280;4897;43.570;27.832;2022-10-31T10:53:37;99477.78;;;30.59;35.46
9717;BME280;4897;43.570;27.832;2022-10-31T10:56:33;99462.34;;;31.99;34.11
9717;BME280;4897;43.570;27.832;2022-10-31T10:59:03;99472.16;;;32.12;33.35
9717;BME280;4897;43.570;27.832;2022-10-31T11:01:30;99472.88;;;32.02;33.17
9717;BME280;4897;43.570;27.832;2022-10-31T11:03:57;99453.72;;;33.38;31.97
9717;BME280;4897;43.570;27.832;2022-10-31T11:06:28;99467.16;;;32.72;32.59
9717;BME280;4897;43.570;27.832;2022-10-31T11:08:54;99464.41;;;33.71;30.29
9717;BME280;4897;43.570;27.832;2022-10-31T11:11:26;99450.28;;;31.62;32.45
9717;BME280;4897;43.570;27.832;2022-10-31T11:14:03;99459.03;;;32.02;32.45
9717;BME280;4897;43.570;27.832;2022-10-31T11:16:33;99447.19;;;32.70;32.42
9717;BME280;4897;43.570;27.832;2022-10-31T11:19:13;99424.75;;;32.67;31.55
9717;BME280;4897;43.570;27.832;2022-10-31T11:21:46;99442.25;;;33.19;31.75
9717;BME280;4897;43.570;27.832;2022-10-31T11:24:16;99443.16;;;34.07;30.54
9717;BME280;4897;43.570;27.832;2022-10-31T11:26:46;99428.19;;;34.38;30.33
9717;BME280;4897;43.570;27.832;2022-10-31T11:29:16;99434.66;;;35.38;29.45
9717;BME280;4897;43.570;27.832;2022-10-31T11:31:45;99433.22;;;36.09;28.68
9717;BME280;4897;43.570;27.832;2022-10-31T11:34:19;99426.03;;;35.93;28.55
9717;BME280;4897;43.570;27.832;2022-10-31T11:36:50;99430.13;;;34.57;29.61
9717;BME280;4897;43.570;27.832;2022-10-31T11:39:19;99442.06;;;34.48;29.78
9717;BME280;4897;43.570;27.832;2022-10-31T11:41:48;99442.59;;;32.49;31.97
9717;BME280;4897;43.570;27.832;2022-10-31T11:44:18;99449.84;;;31.97;32.53
9717;BME280;4897;43.570;27.832;2022-10-31T11:46:47;99448.09;;;31.64;33.22
9717;BME280;4897;43.570;27.832;2022-10-31T11:49:30;99439.78;;;30.16;35.15
9717;BME280;4897;43.570;27.832;2022-10-31T11:52:04;99455.53;;;28.62;37.64
9717;BME280;4897;43.570;27.832;2022-10-31T11:54:47;99451.34;;;27.29;41.40
9717;BME280;4897;43.570;27.832;2022-10-31T11:57:27;99443.31;;;28.92;38.35
9717;BME280;4897;43.570;27.832;2022-10-31T11:59:56;99443.31;;;30.28;36.71
9717;BME280;4897;43.570;27.832;2022-10-31T12:02:24;99442.47;;;30.61;36.13
9717;BME280;4897;43.570;27.832;2022-10-31T12:04:59;99436.75;;;29.84;37.16
9717;BME280;4897;43.570;27.832;2022-10-31T12:07:29;99439.13;;;30.92;35.46
9717;BME280;4897;43.570;27.832;2022-10-31T12:09:56;99447.31;;;31.04;34.57
9717;BME280;4897;43.570;27.832;2022-10-31T12:12:35;99439.41;;;31.12;34.26
9717;BME280;4897;43.570;27.832;2022-10-31T12:15:20;99445.41;;;32.22;33.40
9717;BME280;4897;43.570;27.832;2022-10-31T12:17:55;99432.22;;;33.08;31.97
9717;BME280;4897;43.570;27.832;2022-10-31T12:20:34;99438.13;;;33.27;31.94
9717;BME280;4897;43.570;27.832;2022-10-31T12:23:12;99443.41;;;32.18;32.95
9717;BME280;4897;43.570;27.832;2022-10-31T12:25:46;99442.97;;;30.08;35.35
9717;BME280;4897;43.570;27.832;2022-10-31T12:28:36;99434.13;;;30.89;35.13
9717;BME280;4897;43.570;27.832;2022-10-31T12:31:17;99441.66;;;31.37;33.47
9717;BME280;4897;43.570;27.832;2022-10-31T12:33:55;99444.72;;;29.06;36.26
9717;BME280;4897;43.570;27.832;2022-10-31T12:36:34;99457.59;;;28.66;37.38
9717;BME280;4897;43.570;27.832;2022-10-31T12:39:22;99438.91;;;28.80;37.01
9717;BME280;4897;43.570;27.832;2022-10-31T12:41:52;99467.06;;;28.17;38.69
9717;BME280;4897;43.570;27.832;2022-10-31T12:44:40;99454.19;;;28.41;39.15
9717;BME280;4897;43.570;27.832;2022-10-31T12:47:29;99454.22;;;28.76;38.86
9717;BME280;4897;43.570;27.832;2022-10-31T12:50:12;99431.59;;;30.54;36.01
9717;BME280;4897;43.570;27.832;2022-10-31T12:52:54;99442.41;;;31.97;33.78
9717;BME280;4897;43.570;27.832;2022-10-31T12:55:37;99455.34;;;32.18;33.51
9717;BME280;4897;43.570;27.832;2022-10-31T12:58:10;99454.66;;;31.58;33.85
9717;BME280;4897;43.570;27.832;2022-10-31T13:00:44;99445.53;;;29.70;36.27
9717;BME280;4897;43.570;27.832;2022-10-31T13:03:20;99460.94;;;28.15;39.09
9717;BME280;4897;43.570;27.832;2022-10-31T13:05:51;99458.13;;;26.72;42.36
9717;BME280;4897;43.570;27.832;2022-10-31T13:08:30;99459.88;;;27.57;41.66
9717;BME280;4897;43.570;27.832;2022-10-31T13:11:08;99457.31;;;29.02;39.14
9717;BME280;4897;43.570;27.832;2022-10-31T13:13:40;99441.50;;;29.89;37.38
9717;BME280;4897;43.570;27.832;2022-10-31T13:16:12;99456.38;;;31.21;36.13
9717;BME280;4897;43.570;27.832;2022-10-31T13:18:44;99457.81;;;31.07;35.43
9717;BME280;4897;43.570;27.832;2022-10-31T13:21:18;99457.44;;;31.58;34.80
9717;BME280;4897;43.570;27.832;2022-10-31T13:23:49;99466.28;;;30.84;35.55
9717;BME280;4897;43.570;27.832;2022-10-31T13:26:21;99431.06;;;29.23;37.59
9717;BME280;4897;43.570;27.832;2022-10-31T13:28:57;99423.03;;;29.89;36.43
9717;BME280;4897;43.570;27.832;2022-10-31T13:31:26;99458.41;;;29.92;36.59